sensor_id;sensor_type;location;lat;lon;timestamp;P1;durP1;ratioP1;P2;durP2;ratioP2
76593;SDS011;65482;50.240;14.302;2024-01-30T00:01:24;59.88;;;20.92;;
76593;SDS011;65482;50.240;14.302;2024-01-30T00:03:50;51.33;;;18.48;;
76593;SDS011;65482;50.240;14.302;2024-01-30T00:06:18;55.08;;;19.38;;
76593;SDS011;65482;50.240;14.302;2024-01-30T00:08:46;56.67;;;20.25;;
76593;SDS011;65482;50.240;14.302;2024-01-30T00:11:14;55.10;;;18.60;;
76593;SDS011;65482;50.240;14.302;2024-01-30T00:13:40;54.55;;;19.05;;
76593;SDS011;65482;50.240;14.302;2024-01-30T00:16:05;57.05;;;20.08;;
76593;SDS011;65482;50.240;14.302;2024-01-30T00:18:32;50.78;;;18.90;;
76593;SDS011;65482;50.240;14.302;2024-01-30T00:20:57;50.63;;;18.40;;
76593;SDS011;65482;50.240;14.302;2024-01-30T00:23:23;47.75;;;19.10;;
76593;SDS011;65482;50.240;14.302;2024-01-30T00:25:48;52.63;;;18.02;;
76593;SDS011;65482;50.240;14.302;2024-01-30T00:28:14;54.72;;;19.30;;
76593;SDS011;65482;50.240;14.302;2024-01-30T00:30:39;50.78;;;18.10;;
76593;SDS011;65482;50.240;14.302;2024-01-30T00:33:05;55.25;;;19.65;;
76593;SDS011;65482;50.240;14.302;2024-01-30T00:35:30;47.72;;;17.35;;
76593;SDS011;65482;50.240;14.302;2024-01-30T00:37:56;50.78;;;17.73;;
76593;SDS011;65482;50.240;14.302;2024-01-30T00:40:22;52.70;;;19.45;;
76593;SDS011;65482;50.240;14.302;2024-01-30T00:42:48;52.10;;;17.40;;
76593;SDS011;65482;50.240;14.302;2024-01-30T00:45:14;51.58;;;19.33;;
76593;SDS011;65482;50.240;14.302;2024-01-30T00:47:40;48.45;;;16.83;;
76593;SDS011;65482;50.240;14.302;2024-01-30T00:50:06;52.00;;;18.20;;
76593;SDS011;65482;50.240;14.302;2024-01-30T00:52:32;49.20;;;18.90;;
76593;SDS011;65482;50.240;14.302;2024-01-30T00:54:58;58.20;;;18.40;;
76593;SDS011;65482;50.240;14.302;2024-01-30T00:57:24;52.35;;;18.23;;
76593;SDS011;65482;50.240;14.302;2024-01-30T00:59:50;56.63;;;17.83;;
76593;SDS011;65482;50.240;14.302;2024-01-30T01:02:16;53.20;;;18.02;;
76593;SDS011;65482;50.240;14.302;2024-01-30T01:04:42;51.50;;;18.67;;
76593;SDS011;65482;50.240;14.302;2024-01-30T01:07:10;49.92;;;16.63;;
76593;SDS011;65482;50.240;14.302;2024-01-30T01:09:35;50.90;;;17.88;;
76593;SDS011;65482;50.240;14.302;2024-01-30T01:12:02;58.88;;;18.35;;
76593;SDS011;65482;50.240;14.302;2024-01-30T01:14:28;52.20;;;16.90;;
76593;SDS011;65482;50.240;14.302;2024-01-30T01:16:53;50.55;;;17.85;;
76593;SDS011;65482;50.240;14.302;2024-01-30T01:19:19;49.63;;;17.80;;
76593;SDS011;65482;50.240;14.302;2024-01-30T01:21:44;52.65;;;18.08;;
76593;SDS011;65482;50.240;14.302;2024-01-30T01:24:10;53.92;;;18.98;;
76593;SDS011;65482;50.240;14.302;2024-01-30T01:26:36;54.10;;;17.77;;
76593;SDS011;65482;50.240;14.302;2024-01-30T01:29:01;51.42;;;17.95;;
76593;SDS011;65482;50.240;14.302;2024-01-30T01:31:27;46.00;;;16.30;;
76593;SDS011;65482;50.240;14.302;2024-01-30T01:33:54;48.65;;;17.58;;
76593;SDS011;65482;50.240;14.302;2024-01-30T01:36:20;49.80;;;17.50;;
76593;SDS011;65482;50.240;14.302;2024-01-30T01:38:46;49.78;;;16.50;;
76593;SDS011;65482;50.240;14.302;2024-01-30T01:41:11;47.30;;;17.20;;
76593;SDS011;65482;50.240;14.302;2024-01-30T01:43:37;47.60;;;17.48;;
76593;SDS011;65482;50.240;14.302;2024-01-30T01:46:04;54.97;;;18.30;;
76593;SDS011;65482;50.240;14.302;2024-01-30T01:48:31;48.40;;;16.95;;
76593;SDS011;65482;50.240;14.302;2024-01-30T01:50:58;49.75;;;16.27;;
76593;SDS011;65482;50.240;14.302;2024-01-30T01:53:24;49.25;;;17.50;;
76593;SDS011;65482;50.240;14.302;2024-01-30T01:55:50;53.30;;;16.67;;
76593;SDS011;65482;50.240;14.302;2024-01-30T01:58:18;53.33;;;18.55;;
76593;SDS011;65482;50.240;14.302;2024-01-30T02:00:45;46.85;;;16.25;;
76593;SDS011;65482;50.240;14.302;2024-01-30T02:03:11;45.13;;;17.45;;
76593;SDS011;65482;50.240;14.302;2024-01-30T02:05:39;45.90;;;16.52;;
76593;SDS011;65482;50.240;14.302;2024-01-30T02:08:06;45.47;;;15.98;;
76593;SDS011;65482;50.240;14.302;2024-01-30T02:10:33;48.25;;;16.38;;
76593;SDS011;65482;50.240;14.302;2024-01-30T02:12:59;46.92;;;16.90;;
76593;SDS011;65482;50.240;14.302;2024-01-30T02:15:25;44.30;;;16.40;;
76593;SDS011;65482;50.240;14.302;2024-01-30T02:17:50;44.22;;;15.63;;
76593;SDS011;65482;50.240;14.302;2024-01-30T02:20:16;41.75;;;15.65;;
76593;SDS011;65482;50.240;14.302;2024-01-30T02:22:41;43.55;;;15.60;;
76593;SDS011;65482;50.240;14.302;2024-01-30T02:25:08;48.35;;;17.23;;
76593;SDS011;65482;50.240;14.302;2024-01-30T02:27:34;44.03;;;16.08;;
76593;SDS011;65482;50.240;14.302;2024-01-30T02:29:59;47.08;;;16.85;;
76593;SDS011;65482;50.240;14.302;2024-01-30T02:32:25;48.67;;;16.75;;
76593;SDS011;65482;50.240;14.302;2024-01-30T02:34:50;46.95;;;17.25;;
76593;SDS011;65482;50.240;14.302;2024-01-30T02:37:16;49.58;;;16.85;;
76593;SDS011;65482;50.240;14.302;2024-01-30T02:39:42;56.90;;;16.90;;
76593;SDS011;65482;50.240;14.302;2024-01-30T02:42:07;44.67;;;16.08;;
76593;SDS011;65482;50.240;14.302;2024-01-30T02:44:33;41.55;;;15.60;;
76593;SDS011;65482;50.240;14.302;2024-01-30T02:46:58;44.08;;;15.57;;
76593;SDS011;65482;50.240;14.302;2024-01-30T02:49:24;48.70;;;16.02;;
76593;SDS011;65482;50.240;14.302;2024-01-30T02:51:49;51.03;;;16.70;;
76593;SDS011;65482;50.240;14.302;2024-01-30T02:54:16;47.88;;;17.20;;
76593;SDS011;65482;50.240;14.302;2024-01-30T02:56:41;45.33;;;16.63;;
76593;SDS011;65482;50.240;14.302;2024-01-30T02:59:07;45.13;;;16.95;;
76593;SDS011;65482;50.240;14.302;2024-01-30T03:01:32;41.60;;;16.42;;
76593;SDS011;65482;50.240;14.302;2024-01-30T03:03:58;46.80;;;15.85;;
76593;SDS011;65482;50.240;14.302;2024-01-30T03:06:23;44.67;;;14.88;;
76593;SDS011;65482;50.240;14.302;2024-01-30T03:08:49;53.17;;;16.67;;
76593;SDS011;65482;50.240;14.302;2024-01-30T03:11:15;49.88;;;18.30;;
76593;SDS011;65482;50.240;14.302;2024-01-30T03:13:40;54.10;;;17.38;;
76593;SDS011;65482;50.240;14.302;2024-01-30T03:16:06;48.70;;;16.27;;
76593;SDS011;65482;50.240;14.302;2024-01-30T03:18:32;58.83;;;17.73;;
76593;SDS011;65482;50.240;14.302;2024-01-30T03:20:57;50.70;;;16.52;;
76593;SDS011;65482;50.240;14.302;2024-01-30T03:23:23;49.35;;;17.02;;
76593;SDS011;65482;50.240;14.302;2024-01-30T03:25:48;56.30;;;17.17;;
76593;SDS011;65482;50.240;14.302;2024-01-30T03:28:14;50.28;;;15.77;;
76593;SDS011;65482;50.240;14.302;2024-01-30T03:30:39;53.70;;;17.48;;
76593;SDS011;65482;50.240;14.302;2024-01-30T03:33:05;51.38;;;17.20;;
76593;SDS011;65482;50.240;14.302;2024-01-30T03:35:31;46.78;;;17.13;;
76593;SDS011;65482;50.240;14.302;2024-01-30T03:37:56;57.50;;;16.88;;
76593;SDS011;65482;50.240;14.302;2024-01-30T03:40:22;55.10;;;17.75;;
76593;SDS011;65482;50.240;14.302;2024-01-30T03:42:47;50.97;;;17.95;;
76593;SDS011;65482;50.240;14.302;2024-01-30T03:45:13;56.67;;;17.30;;
76593;SDS011;65482;50.240;14.302;2024-01-30T03:47:39;51.10;;;17.65;;
76593;SDS011;65482;50.240;14.302;2024-01-30T03:50:04;48.20;;;16.83;;
76593;SDS011;65482;50.240;14.302;2024-01-30T03:52:30;59.47;;;18.75;;
76593;SDS011;65482;50.240;14.302;2024-01-30T03:54:55;53.08;;;17.58;;
76593;SDS011;65482;50.240;14.302;2024-01-30T03:57:21;49.25;;;15.98;;
76593;SDS011;65482;50.240;14.302;2024-01-30T03:59:47;48.00;;;16.85;;
76593;SDS011;65482;50.240;14.302;2024-01-30T04:02:12;52.85;;;18.10;;
76593;SDS011;65482;50.240;14.302;2024-01-30T04:04:38;45.08;;;17.27;;
76593;SDS011;65482;50.240;14.302;2024-01-30T04:07:04;47.63;;;15.25;;
76593;SDS011;65482;50.240;14.302;2024-01-30T04:09:29;47.38;;;16.65;;
76593;SDS011;65482;50.240;14.302;2024-01-30T04:11:55;45.08;;;15.60;;
76593;SDS011;65482;50.240;14.302;2024-01-30T04:14:20;45.72;;;16.20;;
76593;SDS011;65482;50.240;14.302;2024-01-30T04:16:46;44.63;;;16.42;;
76593;SDS011;65482;50.240;14.302;2024-01-30T04:19:11;48.58;;;17.02;;
76593;SDS011;65482;50.240;14.302;2024-01-30T04:21:37;49.28;;;16.85;;
76593;SDS011;65482;50.240;14.302;2024-01-30T04:24:02;53.00;;;17.00;;
76593;SDS011;65482;50.240;14.302;2024-01-30T04:26:28;43.47;;;15.77;;
76593;SDS011;65482;50.240;14.302;2024-01-30T04:28:54;49.10;;;16.60;;
76593;SDS011;65482;50.240;14.302;2024-01-30T04:31:19;45.30;;;15.93;;
76593;SDS011;65482;50.240;14.302;2024-01-30T04:33:45;52.47;;;16.15;;
76593;SDS011;65482;50.240;14.302;2024-01-30T04:36:10;41.33;;;14.82;;
76593;SDS011;65482;50.240;14.302;2024-01-30T04:38:36;46.72;;;15.90;;
76593;SDS011;65482;50.240;14.302;2024-01-30T04:41:03;44.88;;;15.80;;
76593;SDS011;65482;50.240;14.302;2024-01-30T04:43:29;49.88;;;17.58;;
76593;SDS011;65482;50.240;14.302;2024-01-30T04:45:55;46.08;;;15.70;;
76593;SDS011;65482;50.240;14.302;2024-01-30T04:48:20;50.72;;;16.20;;
76593;SDS011;65482;50.240;14.302;2024-01-30T04:50:46;49.50;;;16.05;;
76593;SDS011;65482;50.240;14.302;2024-01-30T04:53:12;44.50;;;14.50;;
76593;SDS011;65482;50.240;14.302;2024-01-30T04:55:37;54.55;;;16.95;;
76593;SDS011;65482;50.240;14.302;2024-01-30T04:58:03;47.72;;;15.70;;
76593;SDS011;65482;50.240;14.302;2024-01-30T05:00:28;50.53;;;16.20;;
76593;SDS011;65482;50.240;14.302;2024-01-30T05:02:57;49.05;;;16.30;;
76593;SDS011;65482;50.240;14.302;2024-01-30T05:05:22;47.80;;;16.42;;
76593;SDS011;65482;50.240;14.302;2024-01-30T05:07:48;47.75;;;16.70;;
76593;SDS011;65482;50.240;14.302;2024-01-30T05:10:14;44.65;;;15.55;;
76593;SDS011;65482;50.240;14.302;2024-01-30T05:12:40;42.13;;;15.93;;
76593;SDS011;65482;50.240;14.302;2024-01-30T05:15:05;43.05;;;15.63;;
76593;SDS011;65482;50.240;14.302;2024-01-30T05:17:32;47.88;;;15.38;;
76593;SDS011;65482;50.240;14.302;2024-01-30T05:19:58;48.53;;;16.40;;
76593;SDS011;65482;50.240;14.302;2024-01-30T05:22:24;42.97;;;15.07;;
76593;SDS011;65482;50.240;14.302;2024-01-30T05:24:49;47.00;;;15.00;;
76593;SDS011;65482;50.240;14.302;2024-01-30T05:27:15;46.47;;;14.85;;
76593;SDS011;65482;50.240;14.302;2024-01-30T05:29:40;48.63;;;15.50;;
76593;SDS011;65482;50.240;14.302;2024-01-30T05:32:06;53.63;;;16.23;;
76593;SDS011;65482;50.240;14.302;2024-01-30T05:34:32;50.60;;;15.98;;
76593;SDS011;65482;50.240;14.302;2024-01-30T05:36:58;42.75;;;15.38;;
76593;SDS011;65482;50.240;14.302;2024-01-30T05:39:23;51.45;;;16.15;;
76593;SDS011;65482;50.240;14.302;2024-01-30T05:41:49;50.22;;;15.98;;
76593;SDS011;65482;50.240;14.302;2024-01-30T05:44:14;45.35;;;15.60;;
76593;SDS011;65482;50.240;14.302;2024-01-30T05:46:40;48.63;;;15.30;;
76593;SDS011;65482;50.240;14.302;2024-01-30T05:49:05;44.45;;;15.48;;
76593;SDS011;65482;50.240;14.302;2024-01-30T05:51:31;43.20;;;15.85;;
76593;SDS011;65482;50.240;14.302;2024-01-30T05:53:57;50.90;;;15.25;;
76593;SDS011;65482;50.240;14.302;2024-01-30T05:56:22;51.45;;;16.75;;
76593;SDS011;65482;50.240;14.302;2024-01-30T05:58:48;45.33;;;15.63;;
76593;SDS011;65482;50.240;14.302;2024-01-30T06:01:15;58.75;;;17.70;;
76593;SDS011;65482;50.240;14.302;2024-01-30T06:03:41;53.05;;;17.08;;
76593;SDS011;65482;50.240;14.302;2024-01-30T06:06:08;52.05;;;18.60;;
76593;SDS011;65482;50.240;14.302;2024-01-30T06:08:34;52.17;;;16.35;;
76593;SDS011;65482;50.240;14.302;2024-01-30T06:10:59;44.97;;;15.60;;
76593;SDS011;65482;50.240;14.302;2024-01-30T06:13:26;43.65;;;16.08;;
76593;SDS011;65482;50.240;14.302;2024-01-30T06:15:52;51.22;;;16.58;;
76593;SDS011;65482;50.240;14.302;2024-01-30T06:18:18;48.03;;;16.05;;
76593;SDS011;65482;50.240;14.302;2024-01-30T06:20:43;55.50;;;17.75;;
76593;SDS011;65482;50.240;14.302;2024-01-30T06:23:09;53.53;;;17.83;;
76593;SDS011;65482;50.240;14.302;2024-01-30T06:25:35;60.05;;;17.10;;
76593;SDS011;65482;50.240;14.302;2024-01-30T06:28:00;46.58;;;15.52;;
76593;SDS011;65482;50.240;14.302;2024-01-30T06:30:26;52.55;;;15.07;;
76593;SDS011;65482;50.240;14.302;2024-01-30T06:32:52;51.05;;;16.90;;
76593;SDS011;65482;50.240;14.302;2024-01-30T06:35:17;51.33;;;15.25;;
76593;SDS011;65482;50.240;14.302;2024-01-30T06:37:43;53.00;;;16.92;;
76593;SDS011;65482;50.240;14.302;2024-01-30T06:40:09;55.88;;;16.65;;
76593;SDS011;65482;50.240;14.302;2024-01-30T06:42:35;51.25;;;16.52;;
76593;SDS011;65482;50.240;14.302;2024-01-30T06:45:00;50.97;;;16.45;;
76593;SDS011;65482;50.240;14.302;2024-01-30T06:47:26;52.95;;;16.52;;
76593;SDS011;65482;50.240;14.302;2024-01-30T06:49:51;51.95;;;16.52;;
76593;SDS011;65482;50.240;14.302;2024-01-30T06:52:17;50.72;;;15.88;;
76593;SDS011;65482;50.240;14.302;2024-01-30T06:54:45;48.03;;;17.02;;
76593;SDS011;65482;50.240;14.302;2024-01-30T06:57:14;43.30;;;16.40;;
76593;SDS011;65482;50.240;14.302;2024-01-30T06:59:42;47.22;;;16.33;;
76593;SDS011;65482;50.240;14.302;2024-01-30T07:02:10;46.78;;;16.23;;
76593;SDS011;65482;50.240;14.302;2024-01-30T07:04:36;47.13;;;16.38;;
76593;SDS011;65482;50.240;14.302;2024-01-30T07:07:03;46.53;;;16.02;;
76593;SDS011;65482;50.240;14.302;2024-01-30T07:09:30;43.78;;;15.73;;
76593;SDS011;65482;50.240;14.302;2024-01-30T07:11:56;46.17;;;15.40;;
76593;SDS011;65482;50.240;14.302;2024-01-30T07:14:23;50.42;;;16.33;;
76593;SDS011;65482;50.240;14.302;2024-01-30T07:16:50;41.80;;;14.23;;
76593;SDS011;65482;50.240;14.302;2024-01-30T07:19:15;50.25;;;16.10;;
76593;SDS011;65482;50.240;14.302;2024-01-30T07:21:42;38.78;;;13.85;;
76593;SDS011;65482;50.240;14.302;2024-01-30T07:24:07;39.67;;;15.50;;
76593;SDS011;65482;50.240;14.302;2024-01-30T07:26:33;42.22;;;14.98;;
76593;SDS011;65482;50.240;14.302;2024-01-30T07:28:58;39.05;;;14.77;;
76593;SDS011;65482;50.240;14.302;2024-01-30T07:31:24;39.60;;;14.25;;
76593;SDS011;65482;50.240;14.302;2024-01-30T07:33:50;38.45;;;15.52;;
76593;SDS011;65482;50.240;14.302;2024-01-30T07:36:15;41.25;;;14.57;;
76593;SDS011;65482;50.240;14.302;2024-01-30T07:38:41;45.08;;;16.27;;
76593;SDS011;65482;50.240;14.302;2024-01-30T07:41:07;45.17;;;16.17;;
76593;SDS011;65482;50.240;14.302;2024-01-30T07:43:33;51.25;;;17.92;;
76593;SDS011;65482;50.240;14.302;2024-01-30T07:45:59;46.20;;;15.65;;
76593;SDS011;65482;50.240;14.302;2024-01-30T07:48:26;44.28;;;16.00;;
76593;SDS011;65482;50.240;14.302;2024-01-30T07:50:51;45.67;;;16.70;;
76593;SDS011;65482;50.240;14.302;2024-01-30T07:53:18;44.28;;;14.35;;
76593;SDS011;65482;50.240;14.302;2024-01-30T07:55:44;37.90;;;14.73;;
76593;SDS011;65482;50.240;14.302;2024-01-30T07:58:12;42.50;;;15.18;;
76593;SDS011;65482;50.240;14.302;2024-01-30T08:00:39;45.80;;;15.90;;
76593;SDS011;65482;50.240;14.302;2024-01-30T08:03:05;44.90;;;15.07;;
76593;SDS011;65482;50.240;14.302;2024-01-30T08:05:31;46.13;;;14.90;;
76593;SDS011;65482;50.240;14.302;2024-01-30T08:07:56;44.72;;;15.57;;
76593;SDS011;65482;50.240;14.302;2024-01-30T08:10:22;50.22;;;15.25;;
76593;SDS011;65482;50.240;14.302;2024-01-30T08:12:47;44.75;;;17.08;;
76593;SDS011;65482;50.240;14.302;2024-01-30T08:15:13;42.08;;;15.38;;
76593;SDS011;65482;50.240;14.302;2024-01-30T08:17:39;42.65;;;15.55;;
76593;SDS011;65482;50.240;14.302;2024-01-30T08:20:05;45.17;;;15.27;;
76593;SDS011;65482;50.240;14.302;2024-01-30T08:22:33;41.92;;;15.90;;
76593;SDS011;65482;50.240;14.302;2024-01-30T08:24:59;50.53;;;17.45;;
76593;SDS011;65482;50.240;14.302;2024-01-30T08:27:24;49.05;;;16.77;;
76593;SDS011;65482;50.240;14.302;2024-01-30T08:29:51;42.85;;;15.20;;
76593;SDS011;65482;50.240;14.302;2024-01-30T08:32:16;43.38;;;16.88;;
76593;SDS011;65482;50.240;14.302;2024-01-30T08:35:00;50.67;;;17.10;;
76593;SDS011;65482;50.240;14.302;2024-01-30T08:37:59;45.17;;;16.15;;
76593;SDS011;65482;50.240;14.302;2024-01-30T08:43:50;43.05;;;16.17;;
76593;SDS011;65482;50.240;14.302;2024-01-30T08:50:39;44.85;;;15.00;;
76593;SDS011;65482;50.240;14.302;2024-01-30T08:53:25;43.00;;;15.23;;
76593;SDS011;65482;50.240;14.302;2024-01-30T08:55:51;39.20;;;15.57;;
76593;SDS011;65482;50.240;14.302;2024-01-30T08:58:16;41.72;;;16.20;;
76593;SDS011;65482;50.240;14.302;2024-01-30T09:00:44;46.38;;;15.88;;
76593;SDS011;65482;50.240;14.302;2024-01-30T09:03:10;42.00;;;15.63;;
76593;SDS011;65482;50.240;14.302;2024-01-30T09:05:35;52.80;;;16.70;;
76593;SDS011;65482;50.240;14.302;2024-01-30T09:08:01;46.90;;;15.95;;
76593;SDS011;65482;50.240;14.302;2024-01-30T09:10:26;41.35;;;15.65;;
76593;SDS011;65482;50.240;14.302;2024-01-30T09:12:52;39.22;;;14.13;;
76593;SDS011;65482;50.240;14.302;2024-01-30T09:15:18;36.63;;;14.77;;
76593;SDS011;65482;50.240;14.302;2024-01-30T09:17:44;36.05;;;14.57;;
76593;SDS011;65482;50.240;14.302;2024-01-30T09:20:10;42.92;;;14.38;;
76593;SDS011;65482;50.240;14.302;2024-01-30T09:22:39;33.25;;;13.07;;
76593;SDS011;65482;50.240;14.302;2024-01-30T09:25:04;37.15;;;13.50;;
76593;SDS011;65482;50.240;14.302;2024-01-30T09:27:32;40.50;;;16.27;;
76593;SDS011;65482;50.240;14.302;2024-01-30T09:29:58;39.53;;;14.80;;
76593;SDS011;65482;50.240;14.302;2024-01-30T09:32:23;44.80;;;16.45;;
76593;SDS011;65482;50.240;14.302;2024-01-30T09:34:49;43.67;;;14.98;;
76593;SDS011;65482;50.240;14.302;2024-01-30T09:41:17;34.88;;;14.20;;
76593;SDS011;65482;50.240;14.302;2024-01-30T09:48:07;36.85;;;14.93;;
76593;SDS011;65482;50.240;14.302;2024-01-30T09:50:52;32.35;;;13.48;;
76593;SDS011;65482;50.240;14.302;2024-01-30T09:53:24;31.33;;;14.60;;
76593;SDS011;65482;50.240;14.302;2024-01-30T09:55:56;34.00;;;14.85;;
76593;SDS011;65482;50.240;14.302;2024-01-30T09:58:23;35.50;;;14.00;;
76593;SDS011;65482;50.240;14.302;2024-01-30T10:00:48;37.97;;;15.85;;
76593;SDS011;65482;50.240;14.302;2024-01-30T10:03:21;40.08;;;16.08;;
76593;SDS011;65482;50.240;14.302;2024-01-30T10:05:51;36.67;;;15.77;;
76593;SDS011;65482;50.240;14.302;2024-01-30T10:08:18;41.90;;;16.58;;
76593;SDS011;65482;50.240;14.302;2024-01-30T10:10:50;38.28;;;16.98;;
76593;SDS011;65482;50.240;14.302;2024-01-30T10:20:58;40.53;;;15.80;;
76593;SDS011;65482;50.240;14.302;2024-01-30T10:23:24;46.22;;;17.13;;
76593;SDS011;65482;50.240;14.302;2024-01-30T10:25:53;36.97;;;15.55;;
76593;SDS011;65482;50.240;14.302;2024-01-30T10:28:19;36.28;;;16.50;;
76593;SDS011;65482;50.240;14.302;2024-01-30T10:30:45;34.45;;;15.55;;
76593;SDS011;65482;50.240;14.302;2024-01-30T10:33:11;39.70;;;17.17;;
76593;SDS011;65482;50.240;14.302;2024-01-30T10:35:37;43.03;;;16.38;;
76593;SDS011;65482;50.240;14.302;2024-01-30T10:38:02;37.30;;;16.33;;
76593;SDS011;65482;50.240;14.302;2024-01-30T10:40:34;35.80;;;16.15;;
76593;SDS011;65482;50.240;14.302;2024-01-30T10:43:04;42.47;;;17.20;;
76593;SDS011;65482;50.240;14.302;2024-01-30T10:45:32;46.30;;;18.95;;
76593;SDS011;65482;50.240;14.302;2024-01-30T10:48:01;49.85;;;18.00;;
76593;SDS011;65482;50.240;14.302;2024-01-30T10:50:30;46.85;;;18.50;;
76593;SDS011;65482;50.240;14.302;2024-01-30T10:52:59;42.28;;;17.13;;
76593;SDS011;65482;50.240;14.302;2024-01-30T10:55:26;66.38;;;22.35;;
76593;SDS011;65482;50.240;14.302;2024-01-30T10:57:54;91.53;;;26.15;;
76593;SDS011;65482;50.240;14.302;2024-01-30T11:00:20;62.38;;;21.95;;
76593;SDS011;65482;50.240;14.302;2024-01-30T11:02:50;53.17;;;19.77;;
76593;SDS011;65482;50.240;14.302;2024-01-30T11:05:30;46.75;;;18.60;;
76593;SDS011;65482;50.240;14.302;2024-01-30T11:07:55;50.83;;;19.45;;
76593;SDS011;65482;50.240;14.302;2024-01-30T11:10:21;49.75;;;20.00;;
76593;SDS011;65482;50.240;14.302;2024-01-30T11:12:50;49.25;;;19.13;;
76593;SDS011;65482;50.240;14.302;2024-01-30T11:15:16;52.25;;;20.08;;
76593;SDS011;65482;50.240;14.302;2024-01-30T11:22:46;49.67;;;20.25;;
76593;SDS011;65482;50.240;14.302;2024-01-30T11:25:19;50.65;;;19.65;;
76593;SDS011;65482;50.240;14.302;2024-01-30T11:27:56;44.72;;;17.85;;
76593;SDS011;65482;50.240;14.302;2024-01-30T11:33:04;48.83;;;19.35;;
76593;SDS011;65482;50.240;14.302;2024-01-30T11:35:32;48.28;;;18.33;;
76593;SDS011;65482;50.240;14.302;2024-01-30T11:37:59;48.22;;;18.38;;
76593;SDS011;65482;50.240;14.302;2024-01-30T11:40:29;46.83;;;17.98;;
76593;SDS011;65482;50.240;14.302;2024-01-30T11:42:56;48.78;;;18.83;;
76593;SDS011;65482;50.240;14.302;2024-01-30T11:45:23;46.83;;;18.58;;
76593;SDS011;65482;50.240;14.302;2024-01-30T11:47:48;51.85;;;19.90;;
76593;SDS011;65482;50.240;14.302;2024-01-30T11:50:14;47.33;;;18.95;;
76593;SDS011;65482;50.240;14.302;2024-01-30T11:52:40;43.58;;;18.33;;
76593;SDS011;65482;50.240;14.302;2024-01-30T11:55:07;46.78;;;18.13;;
76593;SDS011;65482;50.240;14.302;2024-01-30T11:57:33;47.03;;;19.13;;
76593;SDS011;65482;50.240;14.302;2024-01-30T12:00:01;49.58;;;19.15;;
76593;SDS011;65482;50.240;14.302;2024-01-30T12:02:39;50.40;;;19.60;;
76593;SDS011;65482;50.240;14.302;2024-01-30T12:05:06;46.25;;;19.08;;
76593;SDS011;65482;50.240;14.302;2024-01-30T12:07:32;45.33;;;18.88;;
76593;SDS011;65482;50.240;14.302;2024-01-30T12:09:58;73.07;;;24.70;;
76593;SDS011;65482;50.240;14.302;2024-01-30T12:12:25;80.38;;;27.08;;
76593;SDS011;65482;50.240;14.302;2024-01-30T12:14:51;60.55;;;22.05;;
76593;SDS011;65482;50.240;14.302;2024-01-30T12:17:27;48.63;;;19.13;;
76593;SDS011;65482;50.240;14.302;2024-01-30T12:20:03;59.05;;;21.33;;
76593;SDS011;65482;50.240;14.302;2024-01-30T12:22:36;53.33;;;21.25;;
76593;SDS011;65482;50.240;14.302;2024-01-30T12:25:10;53.17;;;20.67;;
76593;SDS011;65482;50.240;14.302;2024-01-30T12:27:37;44.60;;;19.20;;
76593;SDS011;65482;50.240;14.302;2024-01-30T12:30:07;52.03;;;21.38;;
76593;SDS011;65482;50.240;14.302;2024-01-30T12:32:36;44.47;;;19.40;;
76593;SDS011;65482;50.240;14.302;2024-01-30T12:35:03;39.40;;;17.85;;
76593;SDS011;65482;50.240;14.302;2024-01-30T12:37:47;43.08;;;20.40;;
76593;SDS011;65482;50.240;14.302;2024-01-30T12:40:14;42.22;;;18.85;;
76593;SDS011;65482;50.240;14.302;2024-01-30T12:42:40;43.65;;;19.33;;
76593;SDS011;65482;50.240;14.302;2024-01-30T12:45:08;38.33;;;18.67;;
76593;SDS011;65482;50.240;14.302;2024-01-30T12:47:34;43.45;;;19.60;;
76593;SDS011;65482;50.240;14.302;2024-01-30T12:50:00;41.78;;;20.02;;
76593;SDS011;65482;50.240;14.302;2024-01-30T12:52:25;43.53;;;19.65;;
76593;SDS011;65482;50.240;14.302;2024-01-30T12:54:53;44.20;;;20.42;;
76593;SDS011;65482;50.240;14.302;2024-01-30T12:57:19;40.00;;;18.55;;
76593;SDS011;65482;50.240;14.302;2024-01-30T12:59:45;42.33;;;18.77;;
76593;SDS011;65482;50.240;14.302;2024-01-30T13:02:14;37.97;;;18.13;;
76593;SDS011;65482;50.240;14.302;2024-01-30T13:04:40;44.33;;;19.65;;
76593;SDS011;65482;50.240;14.302;2024-01-30T13:07:06;40.03;;;19.52;;
76593;SDS011;65482;50.240;14.302;2024-01-30T13:09:32;43.00;;;19.98;;
76593;SDS011;65482;50.240;14.302;2024-01-30T13:12:19;43.75;;;20.15;;
76593;SDS011;65482;50.240;14.302;2024-01-30T13:14:48;44.63;;;20.80;;
76593;SDS011;65482;50.240;14.302;2024-01-30T13:17:17;43.63;;;19.70;;
76593;SDS011;65482;50.240;14.302;2024-01-30T13:19:43;45.70;;;20.52;;
76593;SDS011;65482;50.240;14.302;2024-01-30T13:22:08;42.78;;;20.27;;
76593;SDS011;65482;50.240;14.302;2024-01-30T13:24:36;46.90;;;20.38;;
76593;SDS011;65482;50.240;14.302;2024-01-30T13:27:02;45.17;;;20.75;;
76593;SDS011;65482;50.240;14.302;2024-01-30T13:34:04;43.55;;;19.55;;
76593;SDS011;65482;50.240;14.302;2024-01-30T13:36:48;45.10;;;20.38;;
76593;SDS011;65482;50.240;14.302;2024-01-30T13:39:26;44.97;;;20.65;;
76593;SDS011;65482;50.240;14.302;2024-01-30T13:42:03;44.75;;;19.67;;
76593;SDS011;65482;50.240;14.302;2024-01-30T13:44:44;51.42;;;21.45;;
76593;SDS011;65482;50.240;14.302;2024-01-30T13:50:55;44.15;;;18.98;;
76593;SDS011;65482;50.240;14.302;2024-01-30T13:53:21;44.00;;;19.98;;
76593;SDS011;65482;50.240;14.302;2024-01-30T13:55:47;48.65;;;21.20;;
76593;SDS011;65482;50.240;14.302;2024-01-30T13:58:12;46.63;;;20.88;;
76593;SDS011;65482;50.240;14.302;2024-01-30T14:00:40;45.67;;;20.35;;
76593;SDS011;65482;50.240;14.302;2024-01-30T14:03:05;39.95;;;19.00;;
76593;SDS011;65482;50.240;14.302;2024-01-30T14:05:32;46.80;;;20.00;;
76593;SDS011;65482;50.240;14.302;2024-01-30T14:07:57;42.33;;;20.60;;
76593;SDS011;65482;50.240;14.302;2024-01-30T14:10:29;45.35;;;20.02;;
76593;SDS011;65482;50.240;14.302;2024-01-30T14:12:55;51.22;;;22.27;;
76593;SDS011;65482;50.240;14.302;2024-01-30T14:15:21;53.15;;;22.92;;
76593;SDS011;65482;50.240;14.302;2024-01-30T14:17:47;51.67;;;21.45;;
76593;SDS011;65482;50.240;14.302;2024-01-30T14:38:04;46.85;;;20.95;;
76593;SDS011;65482;50.240;14.302;2024-01-30T14:40:34;45.88;;;21.13;;
76593;SDS011;65482;50.240;14.302;2024-01-30T14:43:19;43.25;;;19.60;;
76593;SDS011;65482;50.240;14.302;2024-01-30T14:45:49;45.05;;;21.30;;
76593;SDS011;65482;50.240;14.302;2024-01-30T14:48:26;45.85;;;19.27;;
76593;SDS011;65482;50.240;14.302;2024-01-30T14:57:46;51.08;;;21.20;;
76593;SDS011;65482;50.240;14.302;2024-01-30T15:03:30;48.35;;;21.42;;
76593;SDS011;65482;50.240;14.302;2024-01-30T15:06:13;48.38;;;21.63;;
76593;SDS011;65482;50.240;14.302;2024-01-30T15:08:39;48.50;;;22.13;;
76593;SDS011;65482;50.240;14.302;2024-01-30T15:11:05;45.15;;;19.92;;
76593;SDS011;65482;50.240;14.302;2024-01-30T15:13:32;44.33;;;19.75;;
76593;SDS011;65482;50.240;14.302;2024-01-30T15:15:58;46.53;;;20.48;;